sensor_id;sensor_type;location;lat;lon;timestamp;P1;durP1;ratioP1;P2;durP2;ratioP2
19171;SDS011;9718;52.200;21.052;2022-08-06T00:02:18;14.03;;;10.40;;
19171;SDS011;9718;52.200;21.052;2022-08-06T00:04:55;16.97;;;10.93;;
19171;SDS011;9718;52.200;21.052;2022-08-06T00:07:24;15.90;;;10.80;;
19171;SDS011;9718;52.200;21.052;2022-08-06T00:09:54;14.57;;;9.73;;
19171;SDS011;9718;52.200;21.052;2022-08-06T00:12:28;14.00;;;10.10;;
19171;SDS011;9718;52.200;21.052;2022-08-06T00:15:01;15.23;;;10.10;;
19171;SDS011;9718;52.200;21.052;2022-08-06T00:17:42;15.30;;;9.80;;
19171;SDS011;9718;52.200;21.052;2022-08-06T00:20:09;15.60;;;10.33;;
19171;SDS011;9718;52.200;21.052;2022-08-06T00:23:00;16.00;;;10.00;;
19171;SDS011;9718;52.200;21.052;2022-08-06T00:25:27;14.17;;;9.67;;
19171;SDS011;9718;52.200;21.052;2022-08-06T00:28:01;13.60;;;10.23;;
19171;SDS011;9718;52.200;21.052;2022-08-06T00:30:36;18.10;;;10.83;;
19171;SDS011;9718;52.200;21.052;2022-08-06T00:33:03;17.93;;;10.93;;
19171;SDS011;9718;52.200;21.052;2022-08-06T00:35:31;17.83;;;11.50;;
19171;SDS011;9718;52.200;21.052;2022-08-06T00:38:00;16.37;;;10.23;;
19171;SDS011;9718;52.200;21.052;2022-08-06T00:40:27;12.97;;;10.17;;
19171;SDS011;9718;52.200;21.052;2022-08-06T00:43:00;28.37;;;12.33;;
19171;SDS011;9718;52.200;21.052;2022-08-06T00:45:35;15.30;;;10.10;;
19171;SDS011;9718;52.200;21.052;2022-08-06T00:48:07;17.30;;;10.57;;
19171;SDS011;9718;52.200;21.052;2022-08-06T00:50:54;18.90;;;11.60;;
19171;SDS011;9718;52.200;21.052;2022-08-06T00:53:21;15.57;;;11.27;;
19171;SDS011;9718;52.200;21.052;2022-08-06T00:55:49;14.10;;;10.57;;
19171;SDS011;9718;52.200;21.052;2022-08-06T00:58:27;16.70;;;10.63;;
19171;SDS011;9718;52.200;21.052;2022-08-06T01:01:09;18.07;;;10.60;;
19171;SDS011;9718;52.200;21.052;2022-08-06T01:03:44;15.83;;;10.87;;
19171;SDS011;9718;52.200;21.052;2022-08-06T01:06:18;19.63;;;11.07;;
19171;SDS011;9718;52.200;21.052;2022-08-06T01:09:06;16.73;;;10.00;;
19171;SDS011;9718;52.200;21.052;2022-08-06T01:11:35;16.23;;;9.80;;
19171;SDS011;9718;52.200;21.052;2022-08-06T01:14:03;15.07;;;10.20;;
19171;SDS011;9718;52.200;21.052;2022-08-06T01:19:22;15.93;;;9.80;;
19171;SDS011;9718;52.200;21.052;2022-08-06T01:31:29;14.87;;;10.57;;
19171;SDS011;9718;52.200;21.052;2022-08-06T01:34:07;17.83;;;10.57;;
19171;SDS011;9718;52.200;21.052;2022-08-06T01:37:06;12.97;;;9.77;;
19171;SDS011;9718;52.200;21.052;2022-08-06T01:39:35;17.70;;;10.00;;
19171;SDS011;9718;52.200;21.052;2022-08-06T01:42:25;14.33;;;10.00;;
19171;SDS011;9718;52.200;21.052;2022-08-06T01:45:03;17.00;;;10.90;;
19171;SDS011;9718;52.200;21.052;2022-08-06T01:47:35;19.90;;;11.47;;
19171;SDS011;9718;52.200;21.052;2022-08-06T01:50:21;20.20;;;10.57;;
19171;SDS011;9718;52.200;21.052;2022-08-06T01:52:54;16.97;;;10.40;;
19171;SDS011;9718;52.200;21.052;2022-08-06T01:55:27;16.60;;;11.13;;
19171;SDS011;9718;52.200;21.052;2022-08-06T01:58:19;15.70;;;10.97;;
19171;SDS011;9718;52.200;21.052;2022-08-06T02:00:55;17.30;;;11.30;;
19171;SDS011;9718;52.200;21.052;2022-08-06T02:03:31;15.13;;;10.87;;
19171;SDS011;9718;52.200;21.052;2022-08-06T02:06:23;16.80;;;10.90;;
19171;SDS011;9718;52.200;21.052;2022-08-06T02:08:56;20.67;;;11.93;;
19171;SDS011;9718;52.200;21.052;2022-08-06T02:11:52;14.60;;;9.90;;
19171;SDS011;9718;52.200;21.052;2022-08-06T02:14:32;19.00;;;12.00;;
19171;SDS011;9718;52.200;21.052;2022-08-06T02:17:03;17.80;;;11.60;;
19171;SDS011;9718;52.200;21.052;2022-08-06T02:19:43;16.23;;;11.87;;
19171;SDS011;9718;52.200;21.052;2022-08-06T02:22:29;15.53;;;10.50;;
19171;SDS011;9718;52.200;21.052;2022-08-06T02:25:00;20.43;;;11.73;;
19171;SDS011;9718;52.200;21.052;2022-08-06T02:27:48;18.63;;;11.93;;
19171;SDS011;9718;52.200;21.052;2022-08-06T02:30:25;26.23;;;12.23;;
19171;SDS011;9718;52.200;21.052;2022-08-06T02:33:03;20.30;;;11.47;;
19171;SDS011;9718;52.200;21.052;2022-08-06T02:35:51;16.87;;;11.17;;
19171;SDS011;9718;52.200;21.052;2022-08-06T02:38:31;17.37;;;11.27;;
19171;SDS011;9718;52.200;21.052;2022-08-06T02:44:09;17.63;;;11.37;;
19171;SDS011;9718;52.200;21.052;2022-08-06T02:46:52;18.17;;;11.43;;
19171;SDS011;9718;52.200;21.052;2022-08-06T02:49:28;20.60;;;12.10;;
19171;SDS011;9718;52.200;21.052;2022-08-06T02:52:05;19.50;;;12.17;;
19171;SDS011;9718;52.200;21.052;2022-08-06T02:55:00;18.50;;;12.90;;
19171;SDS011;9718;52.200;21.052;2022-08-06T02:58:08;17.23;;;12.70;;
19171;SDS011;9718;52.200;21.052;2022-08-06T03:00:41;18.43;;;12.20;;
19171;SDS011;9718;52.200;21.052;2022-08-06T03:03:17;15.60;;;11.97;;
19171;SDS011;9718;52.200;21.052;2022-08-06T03:06:03;19.80;;;11.97;;
19171;SDS011;9718;52.200;21.052;2022-08-06T03:08:32;18.33;;;11.43;;
19171;SDS011;9718;52.200;21.052;2022-08-06T03:11:04;19.73;;;11.37;;
19171;SDS011;9718;52.200;21.052;2022-08-06T03:13:32;20.87;;;12.30;;
19171;SDS011;9718;52.200;21.052;2022-08-06T03:16:02;19.53;;;12.13;;
19171;SDS011;9718;52.200;21.052;2022-08-06T03:18:48;19.67;;;12.03;;
19171;SDS011;9718;52.200;21.052;2022-08-06T03:21:38;19.47;;;11.93;;
19171;SDS011;9718;52.200;21.052;2022-08-06T03:24:16;17.53;;;11.87;;
19171;SDS011;9718;52.200;21.052;2022-08-06T03:26:45;20.27;;;13.27;;
19171;SDS011;9718;52.200;21.052;2022-08-06T03:29:14;23.77;;;12.30;;
19171;SDS011;9718;52.200;21.052;2022-08-06T03:31:42;18.73;;;11.60;;
19171;SDS011;9718;52.200;21.052;2022-08-06T03:34:30;16.50;;;11.00;;
19171;SDS011;9718;52.200;21.052;2022-08-06T03:36:59;19.80;;;12.23;;
19171;SDS011;9718;52.200;21.052;2022-08-06T03:39:33;19.33;;;11.37;;
19171;SDS011;9718;52.200;21.052;2022-08-06T03:42:03;16.80;;;11.53;;
19171;SDS011;9718;52.200;21.052;2022-08-06T03:44:34;17.03;;;11.50;;
19171;SDS011;9718;52.200;21.052;2022-08-06T03:49:35;17.47;;;11.83;;
19171;SDS011;9718;52.200;21.052;2022-08-06T03:52:23;16.40;;;11.80;;
19171;SDS011;9718;52.200;21.052;2022-08-06T03:54:55;16.40;;;11.10;;
19171;SDS011;9718;52.200;21.052;2022-08-06T03:57:32;16.10;;;11.33;;
19171;SDS011;9718;52.200;21.052;2022-08-06T04:00:13;15.83;;;11.67;;
19171;SDS011;9718;52.200;21.052;2022-08-06T04:02:54;16.60;;;11.90;;
19171;SDS011;9718;52.200;21.052;2022-08-06T04:05:28;18.23;;;12.10;;
19171;SDS011;9718;52.200;21.052;2022-08-06T04:08:02;15.27;;;11.50;;
19171;SDS011;9718;52.200;21.052;2022-08-06T04:10:41;15.83;;;11.10;;
19171;SDS011;9718;52.200;21.052;2022-08-06T04:13:24;17.07;;;10.40;;
19171;SDS011;9718;52.200;21.052;2022-08-06T04:16:13;19.20;;;11.97;;
19171;SDS011;9718;52.200;21.052;2022-08-06T04:19:01;19.07;;;11.70;;
19171;SDS011;9718;52.200;21.052;2022-08-06T04:21:34;19.07;;;11.43;;
19171;SDS011;9718;52.200;21.052;2022-08-06T04:24:22;19.87;;;10.47;;
19171;SDS011;9718;52.200;21.052;2022-08-06T04:26:57;16.63;;;10.73;;
19171;SDS011;9718;52.200;21.052;2022-08-06T04:29:35;16.03;;;10.60;;
19171;SDS011;9718;52.200;21.052;2022-08-06T04:32:25;20.20;;;11.43;;
19171;SDS011;9718;52.200;21.052;2022-08-06T04:34:58;18.13;;;11.20;;
19171;SDS011;9718;52.200;21.052;2022-08-06T04:37:48;15.40;;;11.73;;
19171;SDS011;9718;52.200;21.052;2022-08-06T04:40:18;15.77;;;11.70;;
19171;SDS011;9718;52.200;21.052;2022-08-06T04:43:02;17.97;;;12.70;;
19171;SDS011;9718;52.200;21.052;2022-08-06T04:45:33;18.10;;;11.70;;
19171;SDS011;9718;52.200;21.052;2022-08-06T04:48:22;20.87;;;11.93;;
19171;SDS011;9718;52.200;21.052;2022-08-06T04:50:50;18.37;;;11.37;;
19171;SDS011;9718;52.200;21.052;2022-08-06T04:53:20;16.87;;;12.63;;
19171;SDS011;9718;52.200;21.052;2022-08-06T04:56:08;16.03;;;11.80;;
19171;SDS011;9718;52.200;21.052;2022-08-06T04:58:41;16.77;;;10.60;;
19171;SDS011;9718;52.200;21.052;2022-08-06T05:01:09;17.50;;;11.37;;
19171;SDS011;9718;52.200;21.052;2022-08-06T05:03:37;16.63;;;11.13;;
19171;SDS011;9718;52.200;21.052;2022-08-06T05:08:57;18.37;;;10.87;;
19171;SDS011;9718;52.200;21.052;2022-08-06T05:11:47;16.77;;;10.40;;
19171;SDS011;9718;52.200;21.052;2022-08-06T05:14:45;20.60;;;12.20;;
19171;SDS011;9718;52.200;21.052;2022-08-06T05:17:36;14.80;;;10.60;;
19171;SDS011;9718;52.200;21.052;2022-08-06T05:20:18;16.23;;;10.20;;
19171;SDS011;9718;52.200;21.052;2022-08-06T05:22:56;12.47;;;9.80;;
19171;SDS011;9718;52.200;21.052;2022-08-06T05:25:46;12.63;;;9.30;;
19171;SDS011;9718;52.200;21.052;2022-08-06T05:28:22;15.23;;;9.00;;
19171;SDS011;9718;52.200;21.052;2022-08-06T05:30:53;13.10;;;8.30;;
19171;SDS011;9718;52.200;21.052;2022-08-06T05:33:41;13.70;;;8.83;;
19171;SDS011;9718;52.200;21.052;2022-08-06T05:36:09;12.23;;;7.97;;
19171;SDS011;9718;52.200;21.052;2022-08-06T05:38:45;13.43;;;7.70;;
19171;SDS011;9718;52.200;21.052;2022-08-06T05:41:26;13.27;;;7.87;;
19171;SDS011;9718;52.200;21.052;2022-08-06T05:43:59;12.70;;;7.90;;
19171;SDS011;9718;52.200;21.052;2022-08-06T05:47:02;13.20;;;7.80;;
19171;SDS011;9718;52.200;21.052;2022-08-06T05:49:25;12.43;;;7.57;;
19171;SDS011;9718;52.200;21.052;2022-08-06T05:52:34;11.40;;;7.87;;
19171;SDS011;9718;52.200;21.052;2022-08-06T05:55:40;10.17;;;7.47;;
19171;SDS011;9718;52.200;21.052;2022-08-06T06:01:20;10.03;;;6.50;;
19171;SDS011;9718;52.200;21.052;2022-08-06T06:03:48;13.20;;;7.57;;
19171;SDS011;9718;52.200;21.052;2022-08-06T06:06:21;10.93;;;6.77;;
19171;SDS011;9718;52.200;21.052;2022-08-06T06:08:51;9.60;;;6.73;;
19171;SDS011;9718;52.200;21.052;2022-08-06T06:11:27;10.43;;;7.20;;
19171;SDS011;9718;52.200;21.052;2022-08-06T06:23:12;12.57;;;7.50;;
19171;SDS011;9718;52.200;21.052;2022-08-06T06:29:01;11.73;;;7.33;;
19171;SDS011;9718;52.200;21.052;2022-08-06T06:32:04;14.03;;;7.20;;
19171;SDS011;9718;52.200;21.052;2022-08-06T06:35:03;12.97;;;6.97;;
19171;SDS011;9718;52.200;21.052;2022-08-06T06:37:51;9.67;;;6.53;;
19171;SDS011;9718;52.200;21.052;2022-08-06T06:43:59;9.97;;;6.07;;
19171;SDS011;9718;52.200;21.052;2022-08-06T06:46:49;7.53;;;6.17;;
19171;SDS011;9718;52.200;21.052;2022-08-06T06:49:31;8.77;;;6.03;;
19171;SDS011;9718;52.200;21.052;2022-08-06T06:55:01;9.90;;;5.47;;
19171;SDS011;9718;52.200;21.052;2022-08-06T06:57:53;9.47;;;5.90;;
19171;SDS011;9718;52.200;21.052;2022-08-06T07:00:25;8.70;;;5.87;;
19171;SDS011;9718;52.200;21.052;2022-08-06T07:03:12;7.93;;;5.27;;
19171;SDS011;9718;52.200;21.052;2022-08-06T07:05:41;7.97;;;5.57;;
19171;SDS011;9718;52.200;21.052;2022-08-06T07:08:30;8.13;;;5.10;;
19171;SDS011;9718;52.200;21.052;2022-08-06T07:11:08;8.63;;;4.90;;
19171;SDS011;9718;52.200;21.052;2022-08-06T07:13:36;11.13;;;5.07;;
19171;SDS011;9718;52.200;21.052;2022-08-06T07:16:17;7.10;;;4.77;;
19171;SDS011;9718;52.200;21.052;2022-08-06T07:19:03;5.57;;;4.30;;
19171;SDS011;9718;52.200;21.052;2022-08-06T07:21:38;5.73;;;4.77;;
19171;SDS011;9718;52.200;21.052;2022-08-06T07:24:08;5.57;;;4.20;;
19171;SDS011;9718;52.200;21.052;2022-08-06T07:26:58;6.70;;;4.13;;
19171;SDS011;9718;52.200;21.052;2022-08-06T07:29:28;5.23;;;3.67;;
19171;SDS011;9718;52.200;21.052;2022-08-06T07:32:16;6.73;;;4.63;;
19171;SDS011;9718;52.200;21.052;2022-08-06T07:35:05;9.07;;;5.23;;
19171;SDS011;9718;52.200;21.052;2022-08-06T07:37:53;10.80;;;5.60;;
19171;SDS011;9718;52.200;21.052;2022-08-06T07:40:32;7.43;;;5.03;;
19171;SDS011;9718;52.200;21.052;2022-08-06T07:43:12;8.00;;;4.80;;
19171;SDS011;9718;52.200;21.052;2022-08-06T07:45:51;6.70;;;4.37;;
19171;SDS011;9718;52.200;21.052;2022-08-06T07:48:26;9.13;;;4.50;;
19171;SDS011;9718;52.200;21.052;2022-08-06T07:50:58;7.87;;;4.40;;
19171;SDS011;9718;52.200;21.052;2022-08-06T07:53:31;7.43;;;4.53;;
19171;SDS011;9718;52.200;21.052;2022-08-06T07:56:19;6.63;;;4.07;;
19171;SDS011;9718;52.200;21.052;2022-08-06T07:58:51;5.00;;;3.53;;
19171;SDS011;9718;52.200;21.052;2022-08-06T08:01:23;6.60;;;3.77;;
19171;SDS011;9718;52.200;21.052;2022-08-06T08:04:02;5.83;;;3.40;;
19171;SDS011;9718;52.200;21.052;2022-08-06T08:07:04;5.20;;;3.77;;
19171;SDS011;9718;52.200;21.052;2022-08-06T08:09:39;6.93;;;4.37;;
19171;SDS011;9718;52.200;21.052;2022-08-06T08:12:29;7.67;;;4.43;;
19171;SDS011;9718;52.200;21.052;2022-08-06T08:15:05;5.23;;;3.83;;
19171;SDS011;9718;52.200;21.052;2022-08-06T08:17:44;6.47;;;3.57;;
19171;SDS011;9718;52.200;21.052;2022-08-06T08:20:24;6.77;;;3.00;;
19171;SDS011;9718;52.200;21.052;2022-08-06T08:23:05;4.77;;;3.47;;
19171;SDS011;9718;52.200;21.052;2022-08-06T08:25:34;7.37;;;3.47;;
19171;SDS011;9718;52.200;21.052;2022-08-06T08:28:08;6.13;;;3.47;;
19171;SDS011;9718;52.200;21.052;2022-08-06T08:30:38;5.53;;;3.43;;
19171;SDS011;9718;52.200;21.052;2022-08-06T08:33:06;5.80;;;3.57;;
19171;SDS011;9718;52.200;21.052;2022-08-06T08:35:43;5.43;;;3.70;;
19171;SDS011;9718;52.200;21.052;2022-08-06T08:38:27;6.17;;;3.60;;
19171;SDS011;9718;52.200;21.052;2022-08-06T08:41:03;5.17;;;3.27;;
19171;SDS011;9718;52.200;21.052;2022-08-06T08:43:35;7.60;;;4.10;;
19171;SDS011;9718;52.200;21.052;2022-08-06T08:46:34;4.10;;;2.70;;
19171;SDS011;9718;52.200;21.052;2022-08-06T08:49:38;7.47;;;3.97;;
19171;SDS011;9718;52.200;21.052;2022-08-06T08:52:14;8.13;;;3.73;;
19171;SDS011;9718;52.200;21.052;2022-08-06T08:54:48;8.07;;;3.67;;
19171;SDS011;9718;52.200;21.052;2022-08-06T08:57:17;9.30;;;3.87;;
19171;SDS011;9718;52.200;21.052;2022-08-06T09:00:06;7.23;;;4.57;;
19171;SDS011;9718;52.200;21.052;2022-08-06T09:02:37;10.63;;;6.27;;
19171;SDS011;9718;52.200;21.052;2022-08-06T09:05:15;9.47;;;5.20;;
19171;SDS011;9718;52.200;21.052;2022-08-06T09:07:43;8.33;;;4.90;;
19171;SDS011;9718;52.200;21.052;2022-08-06T09:10:26;7.63;;;3.70;;
19171;SDS011;9718;52.200;21.052;2022-08-06T09:12:58;7.80;;;4.57;;
19171;SDS011;9718;52.200;21.052;2022-08-06T09:15:26;6.67;;;4.60;;
19171;SDS011;9718;52.200;21.052;2022-08-06T09:17:59;6.53;;;4.43;;
19171;SDS011;9718;52.200;21.052;2022-08-06T09:20:46;9.00;;;5.13;;
19171;SDS011;9718;52.200;21.052;2022-08-06T09:23:14;11.43;;;6.07;;
19171;SDS011;9718;52.200;21.052;2022-08-06T09:25:46;10.20;;;5.80;;
19171;SDS011;9718;52.200;21.052;2022-08-06T09:36:51;9.50;;;4.40;;
19171;SDS011;9718;52.200;21.052;2022-08-06T09:39:29;11.00;;;4.43;;
19171;SDS011;9718;52.200;21.052;2022-08-06T09:42:34;7.43;;;4.40;;
19171;SDS011;9718;52.200;21.052;2022-08-06T09:45:07;7.07;;;4.33;;
19171;SDS011;9718;52.200;21.052;2022-08-06T09:47:46;9.83;;;5.50;;
19171;SDS011;9718;52.200;21.052;2022-08-06T09:50:40;11.03;;;6.17;;
19171;SDS011;9718;52.200;21.052;2022-08-06T09:53:10;11.87;;;6.77;;
19171;SDS011;9718;52.200;21.052;2022-08-06T09:55:42;13.23;;;7.27;;
19171;SDS011;9718;52.200;21.052;2022-08-06T09:58:10;12.53;;;7.47;;
19171;SDS011;9718;52.200;21.052;2022-08-06T10:00:38;12.70;;;6.83;;
19171;SDS011;9718;52.200;21.052;2022-08-06T10:03:07;10.20;;;6.57;;
19171;SDS011;9718;52.200;21.052;2022-08-06T10:06:06;15.80;;;8.13;;
19171;SDS011;9718;52.200;21.052;2022-08-06T10:08:41;10.80;;;6.60;;
19171;SDS011;9718;52.200;21.052;2022-08-06T10:11:38;11.40;;;5.90;;
19171;SDS011;9718;52.200;21.052;2022-08-06T10:14:26;7.57;;;4.43;;
19171;SDS011;9718;52.200;21.052;2022-08-06T10:19:47;7.37;;;3.90;;
19171;SDS011;9718;52.200;21.052;2022-08-06T10:22:35;7.33;;;4.50;;
19171;SDS011;9718;52.200;21.052;2022-08-06T10:25:15;11.80;;;6.23;;
19171;SDS011;9718;52.200;21.052;2022-08-06T10:27:55;12.20;;;7.23;;
19171;SDS011;9718;52.200;21.052;2022-08-06T10:30:24;11.37;;;6.97;;
19171;SDS011;9718;52.200;21.052;2022-08-06T10:33:02;11.50;;;5.77;;
19171;SDS011;9718;52.200;21.052;2022-08-06T10:35:44;7.13;;;4.63;;
19171;SDS011;9718;52.200;21.052;2022-08-06T10:38:15;8.90;;;4.77;;
19171;SDS011;9718;52.200;21.052;2022-08-06T10:40:54;7.50;;;4.80;;
19171;SDS011;9718;52.200;21.052;2022-08-06T10:43:26;8.83;;;4.43;;
19171;SDS011;9718;52.200;21.052;2022-08-06T10:46:07;10.90;;;4.90;;
19171;SDS011;9718;52.200;21.052;2022-08-06T10:48:40;9.43;;;5.53;;
19171;SDS011;9718;52.200;21.052;2022-08-06T10:51:27;12.03;;;6.70;;
19171;SDS011;9718;52.200;21.052;2022-08-06T10:54:16;10.50;;;5.67;;
19171;SDS011;9718;52.200;21.052;2022-08-06T10:56:48;12.07;;;5.13;;
19171;SDS011;9718;52.200;21.052;2022-08-06T10:59:15;7.23;;;3.80;;
19171;SDS011;9718;52.200;21.052;2022-08-06T11:02:06;6.70;;;3.27;;
19171;SDS011;9718;52.200;21.052;2022-08-06T11:04:59;6.57;;;3.57;;
19171;SDS011;9718;52.200;21.052;2022-08-06T11:10:47;4.30;;;3.13;;
19171;SDS011;9718;52.200;21.052;2022-08-06T11:13:35;5.20;;;3.23;;
19171;SDS011;9718;52.200;21.052;2022-08-06T11:16:23;7.17;;;4.00;;
19171;SDS011;9718;52.200;21.052;2022-08-06T11:19:12;7.37;;;4.20;;
19171;SDS011;9718;52.200;21.052;2022-08-06T11:24:28;5.50;;;3.43;;
19171;SDS011;9718;52.200;21.052;2022-08-06T11:26:58;7.20;;;3.30;;
19171;SDS011;9718;52.200;21.052;2022-08-06T11:30:06;4.93;;;3.00;;
19171;SDS011;9718;52.200;21.052;2022-08-06T11:32:45;4.73;;;3.30;;
19171;SDS011;9718;52.200;21.052;2022-08-06T11:44:17;7.47;;;3.20;;
19171;SDS011;9718;52.200;21.052;2022-08-06T11:47:08;3.47;;;2.00;;
19171;SDS011;9718;52.200;21.052;2022-08-06T11:49:46;3.87;;;1.93;;
19171;SDS011;9718;52.200;21.052;2022-08-06T11:55:06;3.40;;;2.27;;
19171;SDS011;9718;52.200;21.052;2022-08-06T12:00:58;5.87;;;2.80;;
19171;SDS011;9718;52.200;21.052;2022-08-06T12:03:46;5.57;;;3.00;;
19171;SDS011;9718;52.200;21.052;2022-08-06T12:06:21;7.30;;;3.80;;
19171;SDS011;9718;52.200;21.052;2022-08-06T12:09:09;4.37;;;2.60;;
19171;SDS011;9718;52.200;21.052;2022-08-06T12:11:51;4.07;;;2.33;;
19171;SDS011;9718;52.200;21.052;2022-08-06T12:14:42;6.10;;;1.87;;
19171;SDS011;9718;52.200;21.052;2022-08-06T12:17:19;4.30;;;2.10;;
19171;SDS011;9718;52.200;21.052;2022-08-06T12:19:48;4.67;;;2.00;;
19171;SDS011;9718;52.200;21.052;2022-08-06T12:22:29;3.93;;;2.77;;
19171;SDS011;9718;52.200;21.052;2022-08-06T12:24:59;7.40;;;2.83;;
19171;SDS011;9718;52.200;21.052;2022-08-06T12:27:39;4.27;;;2.67;;
19171;SDS011;9718;52.200;21.052;2022-08-06T12:30:16;5.53;;;3.10;;
19171;SDS011;9718;52.200;21.052;2022-08-06T12:33:03;8.40;;;3.40;;
19171;SDS011;9718;52.200;21.052;2022-08-06T12:38:29;9.27;;;3.33;;
19171;SDS011;9718;52.200;21.052;2022-08-06T12:41:05;5.77;;;3.50;;
19171;SDS011;9718;52.200;21.052;2022-08-06T12:43:37;10.83;;;3.67;;
19171;SDS011;9718;52.200;21.052;2022-08-06T12:46:23;10.43;;;4.13;;
19171;SDS011;9718;52.200;21.052;2022-08-06T12:48:56;8.60;;;3.73;;
19171;SDS011;9718;52.200;21.052;2022-08-06T12:51:27;4.50;;;3.17;;
19171;SDS011;9718;52.200;21.052;2022-08-06T12:54:01;6.70;;;3.37;;
19171;SDS011;9718;52.200;21.052;2022-08-06T12:56:31;5.83;;;3.63;;
19171;SDS011;9718;52.200;21.052;2022-08-06T12:59:03;9.67;;;3.30;;
19171;SDS011;9718;52.200;21.052;2022-08-06T13:01:48;7.90;;;4.30;;
19171;SDS011;9718;52.200;21.052;2022-08-06T13:04:35;14.23;;;5.00;;
19171;SDS011;9718;52.200;21.052;2022-08-06T13:07:05;9.00;;;4.90;;
19171;SDS011;9718;52.200;21.052;2022-08-06T13:09:41;10.40;;;4.57;;
19171;SDS011;9718;52.200;21.052;2022-08-06T13:12:30;8.97;;;4.37;;
19171;SDS011;9718;52.200;21.052;2022-08-06T13:15:17;11.83;;;5.40;;
19171;SDS011;9718;52.200;21.052;2022-08-06T13:21:03;4.50;;;3.00;;
19171;SDS011;9718;52.200;21.052;2022-08-06T13:23:44;6.07;;;2.90;;
19171;SDS011;9718;52.200;21.052;2022-08-06T13:26:17;4.37;;;2.60;;
19171;SDS011;9718;52.200;21.052;2022-08-06T13:29:10;6.80;;;2.63;;
19171;SDS011;9718;52.200;21.052;2022-08-06T13:32:07;7.10;;;2.93;;
19171;SDS011;9718;52.200;21.052;2022-08-06T13:34:54;4.90;;;2.87;;
19171;SDS011;9718;52.200;21.052;2022-08-06T13:40:34;5.17;;;2.23;;
19171;SDS011;9718;52.200;21.052;2022-08-06T13:43:17;5.63;;;2.27;;
19171;SDS011;9718;52.200;21.052;2022-08-06T13:46:09;4.17;;;2.20;;
19171;SDS011;9718;52.200;21.052;2022-08-06T13:48:46;3.50;;;1.97;;
19171;SDS011;9718;52.200;21.052;2022-08-06T13:51:18;4.57;;;1.93;;
19171;SDS011;9718;52.200;21.052;2022-08-06T13:53:53;7.13;;;2.03;;
19171;SDS011;9718;52.200;21.052;2022-08-06T13:56:25;4.50;;;1.90;;
19171;SDS011;9718;52.200;21.052;2022-08-06T13:58:58;5.57;;;2.30;;
19171;SDS011;9718;52.200;21.052;2022-08-06T14:01:26;5.33;;;2.10;;
19171;SDS011;9718;52.200;21.052;2022-08-06T14:04:09;5.03;;;1.80;;
19171;SDS011;9718;52.200;21.052;2022-08-06T14:06:39;4.70;;;2.20;;
19171;SDS011;9718;52.200;21.052;2022-08-06T14:09:10;2.33;;;1.60;;
19171;SDS011;9718;52.200;21.052;2022-08-06T14:11:48;3.77;;;1.97;;
19171;SDS011;9718;52.200;21.052;2022-08-06T14:14:20;4.07;;;2.07;;
19171;SDS011;9718;52.200;21.052;2022-08-06T14:16:50;4.30;;;1.80;;
19171;SDS011;9718;52.200;21.052;2022-08-06T14:19:19;6.37;;;2.03;;
19171;SDS011;9718;52.200;21.052;2022-08-06T14:22:06;3.20;;;1.60;;
19171;SDS011;9718;52.200;21.052;2022-08-06T14:24:34;3.73;;;1.57;;
19171;SDS011;9718;52.200;21.052;2022-08-06T14:27:06;4.73;;;1.90;;
19171;SDS011;9718;52.200;21.052;2022-08-06T14:29:42;4.37;;;1.70;;
19171;SDS011;9718;52.200;21.052;2022-08-06T14:32:30;2.77;;;1.50;;
19171;SDS011;9718;52.200;21.052;2022-08-06T14:34:57;6.10;;;1.50;;
19171;SDS011;9718;52.200;21.052;2022-08-06T14:37:31;3.33;;;1.40;;
19171;SDS011;9718;52.200;21.052;2022-08-06T14:40:18;4.07;;;1.60;;
19171;SDS011;9718;52.200;21.052;2022-08-06T14:43:25;3.60;;;1.30;;
19171;SDS011;9718;52.200;21.052;2022-08-06T14:46:23;1.13;;;1.03;;
19171;SDS011;9718;52.200;21.052;2022-08-06T14:48:53;3.13;;;1.17;;
19171;SDS011;9718;52.200;21.052;2022-08-06T14:51:24;3.20;;;0.97;;
19171;SDS011;9718;52.200;21.052;2022-08-06T14:54:12;3.83;;;1.30;;
19171;SDS011;9718;52.200;21.052;2022-08-06T14:56:40;2.10;;;0.90;;
19171;SDS011;9718;52.200;21.052;2022-08-06T14:59:18;3.40;;;1.20;;
19171;SDS011;9718;52.200;21.052;2022-08-06T15:01:49;3.53;;;1.27;;
19171;SDS011;9718;52.200;21.052;2022-08-06T15:04:17;2.03;;;1.00;;
19171;SDS011;9718;52.200;21.052;2022-08-06T15:06:50;3.57;;;1.10;;
19171;SDS011;9718;52.200;21.052;2022-08-06T15:09:25;3.20;;;1.03;;
19171;SDS011;9718;52.200;21.052;2022-08-06T15:12:13;2.87;;;0.97;;
19171;SDS011;9718;52.200;21.052;2022-08-06T15:15:01;2.23;;;1.40;;
19171;SDS011;9718;52.200;21.052;2022-08-06T15:17:31;1.50;;;1.37;;
19171;SDS011;9718;52.200;21.052;2022-08-06T15:20:18;4.03;;;1.47;;
19171;SDS011;9718;52.200;21.052;2022-08-06T15:22:51;5.43;;;1.47;;
19171;SDS011;9718;52.200;21.052;2022-08-06T15:25:21;3.47;;;1.00;;
19171;SDS011;9718;52.200;21.052;2022-08-06T15:28:08;6.27;;;1.33;;
19171;SDS011;9718;52.200;21.052;2022-08-06T15:30:35;2.40;;;1.00;;
19171;SDS011;9718;52.200;21.052;2022-08-06T15:33:04;4.60;;;1.00;;
19171;SDS011;9718;52.200;21.052;2022-08-06T15:35:37;1.30;;;0.70;;
19171;SDS011;9718;52.200;21.052;2022-08-06T15:38:23;2.33;;;1.00;;
19171;SDS011;9718;52.200;21.052;2022-08-06T15:40:52;2.20;;;1.00;;
19171;SDS011;9718;52.200;21.052;2022-08-06T15:43:21;1.87;;;1.00;;
19171;SDS011;9718;52.200;21.052;2022-08-06T15:45:53;1.73;;;0.90;;
19171;SDS011;9718;52.200;21.052;2022-08-06T15:48:24;1.87;;;0.87;;
19171;SDS011;9718;52.200;21.052;2022-08-06T15:50:55;2.40;;;1.00;;
19171;SDS011;9718;52.200;21.052;2022-08-06T15:53:43;1.30;;;0.90;;
19171;SDS011;9718;52.200;21.052;2022-08-06T15:56:22;1.97;;;0.80;;
19171;SDS011;9718;52.200;21.052;2022-08-06T15:59:11;5.73;;;1.67;;
19171;SDS011;9718;52.200;21.052;2022-08-06T16:01:45;2.17;;;1.00;;
19171;SDS011;9718;52.200;21.052;2022-08-06T16:04:28;4.00;;;0.90;;
19171;SDS011;9718;52.200;21.052;2022-08-06T16:07:03;1.83;;;1.00;;
19171;SDS011;9718;52.200;21.052;2022-08-06T16:09:34;2.73;;;1.00;;
19171;SDS011;9718;52.200;21.052;2022-08-06T16:12:23;1.87;;;0.90;;
19171;SDS011;9718;52.200;21.052;2022-08-06T16:14:50;0.83;;;0.70;;
19171;SDS011;9718;52.200;21.052;2022-08-06T16:17:25;4.67;;;0.90;;
19171;SDS011;9718;52.200;21.052;2022-08-06T16:20:16;2.27;;;1.00;;
19171;SDS011;9718;52.200;21.052;2022-08-06T16:22:49;3.50;;;1.03;;
19171;SDS011;9718;52.200;21.052;2022-08-06T16:25:18;0.67;;;0.63;;
19171;SDS011;9718;52.200;21.052;2022-08-06T16:27:49;1.43;;;1.30;;
19171;SDS011;9718;52.200;21.052;2022-08-06T16:30:17;2.10;;;1.10;;
19171;SDS011;9718;52.200;21.052;2022-08-06T16:32:46;1.97;;;1.00;;
19171;SDS011;9718;52.200;21.052;2022-08-06T16:35:15;3.53;;;1.10;;
19171;SDS011;9718;52.200;21.052;2022-08-06T16:37:50;5.93;;;0.90;;
19171;SDS011;9718;52.200;21.052;2022-08-06T16:40:21;2.27;;;1.53;;
19171;SDS011;9718;52.200;21.052;2022-08-06T16:42:50;1.53;;;1.00;;
19171;SDS011;9718;52.200;21.052;2022-08-06T16:45:19;4.90;;;1.00;;
19171;SDS011;9718;52.200;21.052;2022-08-06T16:48:06;4.77;;;1.13;;
19171;SDS011;9718;52.200;21.052;2022-08-06T16:50:53;1.00;;;0.90;;
19171;SDS011;9718;52.200;21.052;2022-08-06T16:53:28;2.47;;;1.13;;
19171;SDS011;9718;52.200;21.052;2022-08-06T16:56:16;1.23;;;0.90;;
19171;SDS011;9718;52.200;21.052;2022-08-06T16:58:44;3.10;;;1.00;;
19171;SDS011;9718;52.200;21.052;2022-08-06T17:01:18;4.73;;;1.20;;
19171;SDS011;9718;52.200;21.052;2022-08-06T17:04:05;2.63;;;1.10;;
19171;SDS011;9718;52.200;21.052;2022-08-06T17:06:33;2.53;;;1.30;;
19171;SDS011;9718;52.200;21.052;2022-08-06T17:09:02;8.00;;;1.43;;